Columbiana, Alabama
Current Conditions -  °F | °C
As of 2:53 PM on Tuesday 25 Nov 2014 (Local Time) from KEET Reporting Station
Clear Clear  
Wind Chill: 59°   Ceiling: Unl
Heat Index: 59°   Visibility: 10mi
Dew Point: 29°   Wind: 9mph
Humidity: 32%   Direction: 320°NW
Pressure: 30.05"   Gusts: NA
Location:  33.18°N, 86.61°W
Report Text: KEET 252053Z AUTO 32008KT 10SM CLR 15/M02 A3005 RMK AO2 SLP173 T01501017 58014
Loading
Personal Weather Stations






























Interactive Weather Map New forecast layout! Learn more

10-Day Weather Forecast

Advertisements
Track Severe Weather on mobile